createdAt,value
2022-08-17T00:02:25.517Z,26.85
2022-08-17T00:04:55.525Z,26.85
2022-08-17T00:07:23.246Z,26.87
2022-08-17T00:09:50.522Z,26.86
2022-08-17T00:12:41.997Z,26.88
2022-08-17T00:15:08.282Z,26.89
2022-08-17T00:17:38.205Z,26.91
2022-08-17T00:20:06.657Z,26.91
2022-08-17T00:22:36.568Z,26.92
2022-08-17T00:25:17.259Z,26.92
2022-08-17T00:27:44.632Z,26.94
2022-08-17T00:30:13.116Z,26.94
2022-08-17T00:33:12.681Z,26.95
2022-08-17T00:35:33.893Z,26.94
2022-08-17T00:38:01.310Z,26.96
2022-08-17T00:40:44.292Z,26.97
2022-08-17T00:43:17.622Z,26.97
2022-08-17T00:45:45.764Z,26.97
2022-08-17T00:48:29.454Z,26.99
2022-08-17T00:51:12.016Z,26.99
2022-08-17T00:53:44.174Z,26.99
2022-08-17T00:56:19.418Z,27.00
2022-08-17T00:58:48.587Z,27.01
2022-08-17T01:01:21.644Z,27.01
2022-08-17T01:03:51.853Z,27.02
2022-08-17T01:06:20.915Z,27.02
2022-08-17T01:08:57.304Z,27.03
2022-08-17T01:11:26.223Z,27.03
2022-08-17T01:13:53.715Z,27.03
2022-08-17T01:16:28.390Z,27.04
2022-08-17T01:19:05.231Z,27.04
2022-08-17T01:21:46.505Z,27.04
2022-08-17T01:24:14.588Z,27.04
2022-08-17T01:26:43.436Z,27.05
2022-08-17T01:29:12.672Z,27.05
2022-08-17T01:31:45.655Z,27.04
2022-08-17T01:34:15.954Z,27.05
2022-08-17T01:36:45.923Z,27.06
2022-08-17T01:39:32.912Z,27.06
2022-08-17T01:42:33.532Z,27.06
2022-08-17T01:45:11.707Z,27.08
2022-08-17T01:47:38.992Z,27.08
2022-08-17T01:50:11.899Z,27.08
2022-08-17T01:52:40.238Z,27.08
2022-08-17T01:55:09.167Z,27.09
2022-08-17T01:57:36.568Z,27.09
2022-08-17T02:00:09.675Z,27.09
2022-08-17T02:02:38.533Z,27.10
2022-08-17T02:05:07.211Z,27.10
2022-08-17T02:07:48.020Z,27.10
2022-08-17T02:10:24.208Z,27.11
2022-08-17T02:13:03.561Z,27.11
2022-08-17T02:15:31.043Z,27.10
2022-08-17T02:17:58.553Z,27.11
2022-08-17T02:20:41.316Z,27.10
2022-08-17T02:23:12.873Z,27.12
2022-08-17T02:25:43.890Z,27.11
2022-08-17T02:28:11.380Z,27.11
2022-08-17T02:30:59.759Z,27.13
2022-08-17T02:33:42.070Z,27.13
2022-08-17T02:36:12.819Z,27.13
2022-08-17T02:38:41.488Z,27.13
2022-08-17T02:41:09.115Z,27.12
2022-08-17T02:43:36.797Z,27.13
2022-08-17T02:46:04.176Z,27.13
2022-08-17T02:48:32.118Z,27.13
2022-08-17T02:51:00.859Z,27.11
2022-08-17T02:53:33.685Z,27.14
2022-08-17T02:56:03.962Z,27.13
2022-08-17T02:58:34.405Z,27.13
2022-08-17T03:01:07.535Z,27.14
2022-08-17T03:03:36.660Z,27.15
2022-08-17T03:06:04.766Z,27.15
2022-08-17T03:08:32.158Z,27.15
2022-08-17T03:10:59.767Z,27.15
2022-08-17T03:13:27.600Z,27.15
2022-08-17T03:15:54.998Z,27.16
2022-08-17T03:18:25.503Z,27.16
2022-08-17T03:20:56.631Z,27.14
2022-08-17T03:23:25.424Z,27.16
2022-08-17T03:25:54.133Z,27.15
2022-08-17T03:28:22.125Z,27.15
2022-08-17T03:30:51.322Z,27.15
2022-08-17T03:33:20.026Z,27.12
2022-08-17T03:35:50.350Z,27.10
2022-08-17T03:38:18.398Z,27.13
2022-08-17T03:40:57.313Z,27.10
2022-08-17T03:43:29.283Z,27.10
2022-08-17T03:46:34.113Z,27.10
2022-08-17T03:49:25.662Z,27.09
2022-08-17T03:52:16.110Z,27.08
2022-08-17T03:55:02.902Z,27.09
2022-08-17T03:57:31.548Z,27.08
2022-08-17T03:59:59.842Z,27.07
2022-08-17T04:02:30.021Z,27.07
2022-08-17T04:04:58.293Z,27.07
2022-08-17T04:07:29.288Z,27.07
2022-08-17T04:09:59.647Z,27.07
2022-08-17T04:12:30.851Z,27.07
2022-08-17T04:14:58.984Z,27.06
2022-08-17T04:17:28.302Z,27.06
2022-08-17T04:19:56.638Z,27.06
2022-08-17T04:22:32.844Z,27.06
2022-08-17T04:25:05.393Z,27.06
2022-08-17T04:27:32.769Z,27.06
2022-08-17T04:30:00.615Z,27.06
2022-08-17T04:33:04.351Z,27.07
2022-08-17T04:35:26.409Z,27.06
2022-08-17T04:37:53.808Z,27.06
2022-08-17T04:40:41.167Z,27.06
2022-08-17T04:43:11.808Z,27.07
2022-08-17T04:45:55.580Z,27.06
2022-08-17T04:48:27.981Z,27.04
2022-08-17T04:51:05.071Z,27.05
2022-08-17T04:53:32.609Z,27.05
2022-08-17T04:55:59.852Z,27.05
2022-08-17T04:58:27.153Z,27.04
2022-08-17T05:00:54.637Z,27.03
2022-08-17T05:03:22.123Z,27.03
2022-08-17T05:05:49.847Z,27.04
2022-08-17T05:08:20.000Z,27.03
2022-08-17T05:10:48.545Z,27.01
2022-08-17T05:13:19.138Z,27.02
2022-08-17T05:15:48.244Z,27.02
2022-08-17T05:18:17.446Z,27.03
2022-08-17T05:20:45.258Z,27.03
2022-08-17T05:23:15.391Z,27.03
2022-08-17T05:25:48.367Z,27.04
2022-08-17T05:28:23.453Z,27.04
2022-08-17T05:30:57.974Z,27.04
2022-08-17T05:33:38.204Z,27.04
2022-08-17T05:36:10.868Z,27.03
2022-08-17T05:38:58.742Z,27.04
2022-08-17T05:41:26.124Z,27.04
2022-08-17T05:43:56.369Z,27.03
2022-08-17T05:46:27.521Z,27.03
2022-08-17T05:49:01.948Z,27.04
2022-08-17T05:51:48.161Z,27.04
2022-08-17T05:54:34.285Z,27.05
2022-08-17T05:57:20.961Z,27.04
2022-08-17T06:00:13.341Z,27.05
2022-08-17T06:02:48.659Z,27.06
2022-08-17T06:05:53.411Z,27.04
2022-08-17T06:08:37.951Z,27.00
2022-08-17T06:11:31.453Z,26.97
2022-08-17T06:14:30.306Z,26.97
2022-08-17T06:17:06.885Z,26.95
2022-08-17T06:19:49.917Z,26.92
2022-08-17T06:22:20.793Z,26.92
2022-08-17T06:24:57.486Z,26.89
2022-08-17T06:27:49.015Z,26.88
2022-08-17T06:30:28.276Z,26.88
2022-08-17T06:33:05.818Z,26.85
2022-08-17T06:36:02.647Z,26.83
2022-08-17T06:38:48.102Z,26.79
2022-08-17T06:41:24.389Z,26.76
2022-08-17T06:44:03.944Z,26.76
2022-08-17T06:46:37.581Z,26.74
2022-08-17T06:49:25.985Z,26.75
2022-08-17T06:52:08.049Z,26.74
2022-08-17T06:54:47.270Z,26.74
2022-08-17T06:57:28.384Z,26.74
2022-08-17T07:00:20.901Z,26.74
2022-08-17T07:02:55.303Z,26.75
2022-08-17T07:05:26.457Z,26.74
2022-08-17T07:08:34.998Z,26.74
2022-08-17T07:11:10.984Z,26.74
2022-08-17T07:13:51.746Z,26.73
2022-08-17T07:16:27.441Z,26.71
2022-08-17T07:18:56.776Z,26.69
2022-08-17T07:21:55.062Z,26.68
2022-08-17T07:24:52.514Z,26.65
2022-08-17T07:27:23.269Z,26.59
2022-08-17T07:30:03.672Z,26.55
2022-08-17T07:32:57.849Z,26.57
2022-08-17T07:35:44.087Z,26.61
2022-08-17T07:38:25.029Z,26.63
2022-08-17T07:41:02.633Z,26.62
2022-08-17T07:43:36.430Z,26.59
2022-08-17T07:46:39.199Z,26.57
2022-08-17T07:49:09.494Z,26.56
2022-08-17T07:51:39.370Z,26.56
2022-08-17T07:54:15.848Z,26.57
2022-08-17T07:56:49.124Z,26.59
2022-08-17T07:59:20.459Z,26.61
2022-08-17T08:02:07.172Z,26.63
2022-08-17T08:04:59.059Z,26.67
2022-08-17T08:07:21.916Z,26.69
2022-08-17T08:10:05.064Z,26.70
2022-08-17T08:12:46.896Z,26.72
2022-08-17T08:15:25.637Z,26.74
2022-08-17T08:17:59.359Z,26.75
2022-08-17T08:20:52.521Z,26.78
2022-08-17T08:23:29.544Z,26.79
2022-08-17T08:26:18.948Z,26.82
2022-08-17T08:29:14.070Z,26.85
2022-08-17T08:31:47.451Z,26.87
2022-08-17T08:35:01.801Z,26.89
2022-08-17T08:38:14.995Z,26.95
2022-08-17T08:41:00.832Z,26.98
2022-08-17T08:43:50.862Z,27.01
2022-08-17T08:46:47.065Z,27.02
2022-08-17T08:50:03.351Z,27.02
2022-08-17T08:52:51.348Z,27.03
2022-08-17T08:55:41.685Z,27.04
2022-08-17T08:58:31.521Z,27.04
2022-08-17T09:01:18.366Z,27.05
2022-08-17T09:03:54.817Z,27.06
2022-08-17T09:07:01.518Z,27.08
2022-08-17T09:09:36.067Z,27.08
2022-08-17T09:12:34.612Z,27.10
2022-08-17T09:15:27.528Z,27.10
2022-08-17T09:19:01.090Z,27.12
2022-08-17T09:21:14.321Z,27.11
2022-08-17T09:24:14.735Z,27.13
2022-08-17T09:27:01.048Z,27.14
2022-08-17T09:29:35.160Z,27.15
2022-08-17T09:32:15.032Z,27.17
2022-08-17T09:34:51.381Z,27.18
2022-08-17T09:38:01.165Z,27.19
2022-08-17T09:40:43.520Z,27.20
2022-08-17T09:43:40.099Z,27.21
2022-08-17T09:46:19.801Z,27.22
2022-08-17T09:48:50.299Z,27.24
2022-08-17T09:51:30.367Z,27.23
2022-08-17T09:54:14.709Z,27.26
2022-08-17T09:57:28.159Z,27.26
2022-08-17T10:00:16.089Z,27.28
2022-08-17T10:03:03.064Z,27.33
2022-08-17T10:05:57.151Z,27.38
2022-08-17T10:08:36.366Z,27.39
2022-08-17T10:11:16.774Z,27.40
2022-08-17T10:14:36.914Z,27.40
2022-08-17T10:17:15.891Z,27.40
2022-08-17T10:20:35.758Z,27.41
2022-08-17T10:23:25.311Z,27.41
2022-08-17T10:26:15.702Z,27.40
2022-08-17T10:29:09.832Z,27.41
2022-08-17T10:31:51.719Z,27.41
2022-08-17T10:34:32.277Z,27.41
2022-08-17T10:43:42.330Z,27.44
2022-08-17T11:04:59.764Z,27.64
2022-08-17T11:08:05.362Z,27.65
2022-08-17T11:10:59.050Z,27.68
2022-08-17T11:13:29.308Z,27.72
2022-08-17T11:16:09.036Z,27.73
2022-08-17T11:18:45.341Z,27.74
2022-08-17T11:22:00.476Z,27.76
2022-08-17T11:24:31.034Z,27.76
2022-08-17T11:27:16.447Z,27.78
2022-08-17T11:29:58.053Z,27.79
2022-08-17T11:32:47.196Z,27.81
2022-08-17T11:35:43.382Z,27.84
2022-08-17T11:38:36.979Z,27.85
2022-08-17T11:41:34.158Z,27.88
2022-08-17T11:44:22.617Z,27.90
2022-08-17T11:47:20.690Z,27.92
2022-08-17T11:50:25.700Z,27.91
2022-08-17T11:52:55.383Z,27.89
2022-08-17T11:55:39.363Z,27.87
2022-08-17T11:58:18.099Z,27.84
2022-08-17T12:00:45.326Z,27.84
2022-08-17T12:03:22.734Z,27.84
2022-08-17T12:05:53.547Z,27.85
2022-08-17T12:08:23.077Z,27.85
2022-08-17T12:11:19.030Z,27.87
2022-08-17T12:14:11.616Z,27.85
2022-08-17T12:16:42.707Z,27.83
2022-08-17T12:19:21.075Z,27.84
2022-08-17T12:22:16.539Z,27.83
2022-08-17T12:25:02.587Z,27.82
2022-08-17T12:28:04.476Z,27.82
2022-08-17T12:30:22.205Z,27.80
2022-08-17T12:32:50.117Z,27.80
2022-08-17T12:35:29.866Z,27.79
2022-08-17T12:37:58.070Z,27.79
2022-08-17T12:40:28.860Z,27.79
2022-08-17T12:43:32.963Z,27.78
2022-08-17T12:46:13.300Z,27.78
2022-08-17T12:48:58.837Z,27.79
2022-08-17T12:51:29.200Z,27.78
2022-08-17T12:53:56.837Z,27.67
2022-08-17T12:56:24.255Z,27.46
2022-08-17T12:58:55.640Z,27.29
2022-08-17T13:01:25.204Z,27.13
2022-08-17T13:03:55.212Z,27.02
2022-08-17T13:06:35.778Z,26.92
2022-08-17T13:09:17.994Z,26.82
2022-08-17T13:11:51.850Z,26.75
2022-08-17T13:14:19.969Z,26.65
2022-08-17T13:16:55.592Z,26.57
2022-08-17T13:19:40.433Z,26.52
2022-08-17T13:22:12.692Z,26.46
2022-08-17T13:24:53.156Z,26.42
2022-08-17T13:27:23.838Z,26.36
2022-08-17T13:29:56.430Z,26.31
2022-08-17T13:32:36.593Z,26.27
2022-08-17T13:35:40.998Z,26.23
2022-08-17T13:38:13.139Z,26.21
2022-08-17T13:40:50.096Z,26.16
2022-08-17T13:43:50.579Z,26.11
2022-08-17T13:46:21.791Z,26.11
2022-08-17T13:49:04.674Z,26.08
2022-08-17T13:51:42.888Z,26.08
2022-08-17T13:54:23.488Z,26.08
2022-08-17T13:57:04.195Z,26.07
2022-08-17T13:59:53.020Z,26.08
2022-08-17T14:02:28.343Z,26.08
2022-08-17T14:04:57.806Z,26.07
2022-08-17T14:07:33.735Z,26.06
2022-08-17T14:10:17.501Z,26.06
2022-08-17T14:12:45.554Z,26.06
2022-08-17T14:15:15.842Z,26.05
2022-08-17T14:17:43.524Z,26.05
2022-08-17T14:20:12.828Z,26.04
2022-08-17T14:22:44.918Z,26.04
2022-08-17T14:25:15.590Z,26.03
2022-08-17T14:27:52.390Z,26.02
2022-08-17T14:30:25.703Z,26.00
2022-08-17T14:32:55.123Z,26.00
2022-08-17T14:35:24.089Z,25.99
2022-08-17T14:37:52.109Z,25.97
2022-08-17T14:40:24.462Z,25.97
2022-08-17T14:42:54.438Z,25.95
2022-08-17T14:45:31.983Z,25.95
2022-08-17T14:48:04.145Z,25.93
2022-08-17T14:50:32.087Z,25.91
2022-08-17T14:53:05.139Z,25.89
2022-08-17T14:55:32.913Z,25.86
2022-08-17T14:58:00.298Z,25.82
2022-08-17T15:00:28.609Z,25.79
2022-08-17T15:02:58.832Z,25.77
2022-08-17T15:05:33.837Z,25.72
2022-08-17T15:08:03.083Z,25.69
2022-08-17T15:10:30.685Z,25.67
2022-08-17T15:12:58.518Z,25.68
2022-08-17T15:15:26.428Z,25.68
2022-08-17T15:17:53.706Z,25.67
2022-08-17T15:20:25.010Z,25.64
2022-08-17T15:22:56.031Z,25.61
2022-08-17T15:25:25.416Z,25.58
2022-08-17T15:27:53.752Z,25.57
2022-08-17T15:30:21.746Z,25.58
2022-08-17T15:32:54.485Z,25.56
2022-08-17T15:35:28.369Z,25.56
2022-08-17T15:38:11.033Z,25.53
2022-08-17T15:40:50.749Z,25.52
2022-08-17T15:43:26.665Z,25.49
2022-08-17T15:46:18.840Z,25.46
2022-08-17T15:48:51.575Z,25.45
2022-08-17T15:51:26.625Z,25.44
2022-08-17T15:54:17.241Z,25.42
2022-08-17T15:56:47.087Z,25.41
2022-08-17T15:59:14.413Z,25.41
2022-08-17T16:03:02.190Z,25.40
2022-08-17T16:04:30.824Z,25.38
2022-08-17T16:07:00.088Z,25.39
2022-08-17T16:09:28.158Z,25.39
2022-08-17T16:11:56.377Z,25.38
2022-08-17T16:14:33.558Z,25.41
2022-08-17T16:17:04.601Z,25.44
2022-08-17T16:19:34.347Z,25.48
2022-08-17T16:22:02.709Z,25.51
2022-08-17T16:24:30.802Z,25.53
2022-08-17T16:28:13.784Z,25.55
2022-08-17T16:30:41.536Z,25.59
2022-08-17T16:33:11.488Z,25.61
2022-08-17T16:35:39.212Z,25.62
2022-08-17T16:38:07.165Z,25.64
2022-08-17T16:40:36.406Z,25.64
2022-08-17T16:43:10.655Z,25.65
2022-08-17T16:45:40.809Z,25.65
2022-08-17T16:48:09.655Z,25.67
2022-08-17T16:50:37.472Z,25.67
2022-08-17T16:53:06.571Z,25.67
2022-08-17T16:55:35.756Z,25.67
2022-08-17T16:58:08.849Z,25.67
2022-08-17T17:00:37.459Z,25.68
2022-08-17T17:03:19.585Z,25.69
2022-08-17T17:06:07.139Z,25.69
2022-08-17T17:08:54.713Z,25.69
2022-08-17T17:11:45.185Z,25.70
2022-08-17T17:14:28.301Z,25.70
2022-08-17T17:17:13.912Z,25.72
2022-08-17T17:20:24.269Z,25.74
2022-08-17T17:23:08.880Z,25.74
2022-08-17T17:25:50.973Z,25.74
2022-08-17T17:28:34.508Z,25.75
2022-08-17T17:31:14.303Z,25.76
2022-08-17T17:33:48.303Z,25.76
2022-08-17T17:36:56.495Z,25.76
2022-08-17T17:40:01.689Z,25.76
2022-08-17T17:42:31.749Z,25.76
2022-08-17T17:45:32.091Z,25.75
2022-08-17T17:47:59.378Z,25.75
2022-08-17T17:51:12.106Z,25.76
2022-08-17T17:53:52.861Z,25.75
2022-08-17T17:56:43.743Z,25.75
2022-08-17T17:59:32.910Z,25.77
2022-08-17T18:02:47.418Z,25.77
2022-08-17T18:05:19.656Z,25.75
2022-08-17T18:07:55.711Z,25.72
2022-08-17T18:10:47.437Z,25.72
2022-08-17T18:13:35.632Z,25.72
2022-08-17T18:16:10.533Z,25.72
2022-08-17T18:18:39.873Z,25.73
2022-08-17T18:21:21.205Z,25.72
2022-08-17T18:23:48.521Z,25.73
2022-08-17T18:26:34.480Z,25.72
2022-08-17T18:29:12.177Z,25.72
2022-08-17T18:31:39.674Z,25.71
2022-08-17T18:34:47.142Z,25.71
2022-08-17T18:37:31.893Z,25.72
2022-08-17T18:40:23.462Z,25.71
2022-08-17T18:43:11.559Z,25.71
2022-08-17T18:45:46.605Z,25.70
2022-08-17T18:48:22.979Z,25.70
2022-08-17T18:50:53.604Z,25.70
2022-08-17T18:53:33.558Z,25.69
2022-08-17T18:56:40.384Z,25.68
2022-08-17T18:59:27.203Z,25.68
2022-08-17T19:02:03.248Z,25.67
2022-08-17T19:04:35.055Z,25.67
2022-08-17T19:07:19.243Z,25.66
2022-08-17T19:09:52.777Z,25.65
2022-08-17T19:12:29.104Z,25.64
2022-08-17T19:14:58.277Z,25.63
2022-08-17T19:17:33.110Z,25.64
2022-08-17T19:20:10.356Z,25.63
2022-08-17T19:22:51.575Z,25.63
2022-08-17T19:25:24.612Z,25.62
2022-08-17T19:27:57.902Z,25.62
2022-08-17T19:30:25.549Z,25.61
2022-08-17T19:32:53.188Z,25.61
2022-08-17T19:35:24.593Z,25.61
2022-08-17T19:38:00.832Z,25.61
2022-08-17T19:40:58.531Z,25.61
2022-08-17T19:44:13.835Z,25.61
2022-08-17T19:46:56.382Z,25.60
2022-08-17T19:49:47.829Z,25.60
2022-08-17T19:52:15.113Z,25.58
2022-08-17T19:55:03.471Z,25.58
2022-08-17T19:57:56.950Z,25.57
2022-08-17T20:00:24.639Z,25.58
2022-08-17T20:03:20.001Z,25.57
2022-08-17T20:06:12.033Z,25.57
2022-08-17T20:08:48.824Z,25.56
2022-08-17T20:11:23.354Z,25.55
2022-08-17T20:14:04.599Z,25.55
2022-08-17T20:16:33.422Z,25.55
2022-08-17T20:19:06.139Z,25.54
2022-08-17T20:21:45.941Z,25.54
2022-08-17T20:24:25.214Z,25.55
2022-08-17T20:27:19.681Z,25.54
2022-08-17T20:30:29.822Z,25.53
2022-08-17T20:32:58.902Z,25.52
2022-08-17T20:35:33.320Z,25.53
2022-08-17T20:38:40.883Z,25.52
2022-08-17T20:41:12.708Z,25.52
2022-08-17T20:43:40.003Z,25.50
2022-08-17T20:46:29.017Z,25.51
2022-08-17T20:49:45.477Z,25.53
2022-08-17T20:52:19.362Z,25.54
2022-08-17T20:54:50.803Z,25.53
2022-08-17T20:57:33.333Z,25.50
2022-08-17T21:00:18.281Z,25.48
2022-08-17T21:02:49.694Z,25.50
2022-08-17T21:05:59.757Z,25.51
2022-08-17T21:08:37.199Z,25.49
2022-08-17T21:12:02.654Z,25.45
2022-08-17T21:14:24.551Z,25.46
2022-08-17T21:17:34.802Z,25.47
2022-08-17T21:20:34.660Z,25.49
2022-08-17T21:23:20.485Z,25.47
2022-08-17T21:25:53.584Z,25.43
2022-08-17T21:29:00.407Z,25.44
2022-08-17T21:31:44.168Z,25.45
2022-08-17T21:34:25.724Z,25.44
2022-08-17T21:36:53.469Z,25.42
2022-08-17T21:39:33.616Z,25.40
2022-08-17T21:42:01.570Z,25.40
2022-08-17T21:44:36.943Z,25.43
2022-08-17T21:47:24.635Z,25.44
2022-08-17T21:49:53.860Z,25.43
2022-08-17T21:52:24.531Z,25.41
2022-08-17T21:54:56.153Z,25.39
2022-08-17T21:57:29.658Z,25.41
2022-08-17T21:59:59.942Z,25.43
2022-08-17T22:02:33.688Z,25.43
2022-08-17T22:05:04.315Z,25.40
2022-08-17T22:07:58.823Z,25.39
2022-08-17T22:10:32.711Z,25.41
2022-08-17T22:13:03.422Z,25.42
2022-08-17T22:15:30.728Z,25.42
2022-08-17T22:18:01.678Z,25.40
2022-08-17T22:20:29.102Z,25.37
2022-08-17T22:23:17.616Z,25.38
2022-08-17T22:26:05.056Z,25.40
2022-08-17T22:28:46.431Z,25.42
2022-08-17T22:31:17.369Z,25.41
2022-08-17T22:33:46.916Z,25.38
2022-08-17T22:36:30.937Z,25.39
2022-08-17T22:39:22.616Z,25.40
2022-08-17T22:42:00.858Z,25.42
2022-08-17T22:44:28.229Z,25.40
2022-08-17T22:47:17.043Z,25.37
2022-08-17T22:49:57.684Z,25.36
2022-08-17T22:52:57.888Z,25.37
2022-08-17T22:55:45.172Z,25.38
2022-08-17T22:58:35.032Z,25.39
2022-08-17T23:01:25.971Z,25.36
2022-08-17T23:03:57.022Z,25.34
2022-08-17T23:06:24.498Z,25.36
2022-08-17T23:08:57.745Z,25.39
2022-08-17T23:11:36.629Z,25.39
2022-08-17T23:14:16.251Z,25.35
2022-08-17T23:16:43.584Z,25.34
2022-08-17T23:19:13.412Z,25.36
2022-08-17T23:21:41.621Z,25.37
2022-08-17T23:24:09.847Z,25.39
2022-08-17T23:26:39.313Z,25.37
2022-08-17T23:29:07.676Z,25.34
2022-08-17T23:31:37.581Z,25.34
2022-08-17T23:34:09.951Z,25.36
2022-08-17T23:36:38.049Z,25.38
2022-08-17T23:39:06.371Z,25.43
2022-08-17T23:41:38.411Z,25.49
2022-08-17T23:44:06.616Z,25.54
2022-08-17T23:46:34.784Z,25.61
2022-08-17T23:49:03.282Z,25.66
2022-08-17T23:51:36.430Z,25.70
2022-08-17T23:54:13.611Z,25.75
2022-08-17T23:56:46.585Z,25.79
2022-08-17T23:59:19.111Z,25.81
